createdAt,value
2023-01-23T00:41:48.084Z,31.35
2023-01-23T00:44:22.294Z,26.35
2023-01-23T00:50:05.252Z,33.83
2023-01-23T00:52:59.250Z,35.00
2023-01-23T00:55:41.012Z,28.30
2023-01-23T00:58:44.795Z,29.90
2023-01-23T01:01:24.076Z,27.52
2023-01-23T01:04:46.487Z,25.60
2023-01-23T01:07:29.423Z,29.40
2023-01-23T01:10:09.057Z,27.53
2023-01-23T01:12:55.051Z,29.90
2023-01-23T01:15:45.004Z,25.60
2023-01-23T01:18:52.602Z,29.40
2023-01-23T01:22:33.722Z,29.58
2023-01-23T01:25:37.370Z,27.53
2023-01-23T01:28:21.810Z,29.85
2023-01-23T01:31:14.412Z,29.92
2023-01-23T01:34:08.435Z,32.70
2023-01-23T01:37:23.738Z,27.80
2023-01-23T01:40:18.712Z,28.75
2023-01-23T01:43:27.568Z,31.95
2023-01-23T01:46:15.341Z,29.10
2023-01-23T01:49:10.270Z,27.95
2023-01-23T01:54:35.768Z,29.50
2023-01-23T01:57:29.249Z,29.02
2023-01-23T02:00:07.886Z,25.97
2023-01-23T02:03:16.273Z,25.40
2023-01-23T02:06:03.407Z,27.15
2023-01-23T02:08:41.378Z,25.75
2023-01-23T02:11:38.073Z,24.42
2023-01-23T02:17:26.919Z,24.75
2023-01-23T02:20:29.888Z,27.42
2023-01-23T02:55:33.866Z,27.05
2023-01-23T02:58:26.664Z,25.48
2023-01-23T03:01:09.434Z,27.70
2023-01-23T03:06:58.037Z,28.10
2023-01-23T03:09:35.431Z,28.33
2023-01-23T03:12:21.992Z,30.13
2023-01-23T03:32:08.873Z,28.05
2023-01-23T03:37:43.199Z,26.50
2023-01-23T03:43:47.633Z,26.95
2023-01-23T03:46:39.728Z,22.73
2023-01-23T03:49:23.942Z,24.73
2023-01-23T03:52:13.027Z,28.03
2023-01-23T03:54:59.706Z,25.50
2023-01-23T04:03:53.751Z,29.15
2023-01-23T04:09:43.333Z,24.45
2023-01-23T04:12:28.694Z,25.37
2023-01-23T04:15:18.686Z,47.55
2023-01-23T04:57:58.933Z,55.90
2023-01-23T05:00:35.614Z,36.80
2023-01-23T05:03:18.613Z,33.03
2023-01-23T05:06:02.141Z,35.73
2023-01-23T05:08:40.364Z,33.25
2023-01-23T05:11:49.138Z,33.33
2023-01-23T05:14:43.848Z,31.85
2023-01-23T05:17:25.841Z,34.23
2023-01-23T05:29:30.912Z,36.55
2023-01-23T05:32:22.078Z,36.55
2023-01-23T05:35:14.582Z,35.47
2023-01-23T05:38:09.066Z,33.90
2023-01-23T05:40:57.929Z,34.65
2023-01-23T05:43:56.990Z,35.77
2023-01-23T05:47:19.174Z,37.17
2023-01-23T05:50:13.127Z,32.95
2023-01-23T05:53:01.800Z,31.70
2023-01-23T05:56:16.464Z,27.80
2023-01-23T05:59:24.281Z,26.48
2023-01-23T06:02:31.397Z,26.07
2023-01-23T06:18:18.490Z,32.15
2023-01-23T08:08:34.385Z,29.77
2023-01-23T08:11:14.983Z,30.35
2023-01-23T08:13:51.107Z,31.70
2023-01-23T08:22:04.875Z,31.55
2023-01-23T08:25:11.816Z,34.77
2023-01-23T08:28:05.530Z,31.95
2023-01-23T08:31:12.208Z,33.35
2023-01-23T08:33:47.925Z,32.80
2023-01-23T08:36:26.400Z,31.05
2023-01-23T08:39:41.781Z,30.25
2023-01-23T08:42:24.023Z,30.38
2023-01-23T08:45:02.331Z,30.25
2023-01-23T08:47:46.211Z,30.73
2023-01-23T08:53:36.740Z,31.33
2023-01-23T08:56:16.666Z,27.45
2023-01-23T08:58:57.079Z,30.38
2023-01-23T09:01:48.875Z,28.95
2023-01-23T09:04:24.606Z,27.63
2023-01-23T09:07:00.799Z,30.15
2023-01-23T09:09:40.875Z,28.73
2023-01-23T09:12:16.340Z,26.20
2023-01-23T09:14:57.946Z,28.42
2023-01-23T09:17:43.740Z,30.45
2023-01-23T09:20:36.588Z,27.40
2023-01-23T09:23:15.291Z,31.80
2023-01-23T09:26:07.563Z,31.05
2023-01-23T09:28:56.995Z,32.38
2023-01-23T09:31:37.420Z,32.38
2023-01-23T09:34:16.135Z,30.17
2023-01-23T09:37:00.943Z,34.20
2023-01-23T09:39:41.977Z,35.67
2023-01-23T09:42:23.049Z,37.53
2023-01-23T09:44:59.865Z,31.27
2023-01-23T09:47:49.189Z,32.28
2023-01-23T09:50:20.984Z,29.57
2023-01-23T09:52:59.199Z,31.40
2023-01-23T09:55:42.609Z,29.23
2023-01-23T09:58:23.103Z,31.95
2023-01-23T10:01:03.111Z,30.40
2023-01-23T10:03:48.467Z,29.25
2023-01-23T10:12:29.611Z,29.07
2023-01-23T10:15:32.157Z,31.65
2023-01-23T10:18:20.789Z,30.23
2023-01-23T10:21:22.373Z,33.03
2023-01-23T10:24:10.356Z,29.37
2023-01-23T10:26:50.894Z,32.08
2023-01-23T10:29:31.635Z,30.42
2023-01-23T10:32:11.298Z,30.92
2023-01-23T10:35:23.176Z,32.25
2023-01-23T10:38:20.988Z,31.83
2023-01-23T10:41:17.839Z,31.73
2023-01-23T10:44:02.330Z,36.45
2023-01-23T10:46:39.887Z,37.20
2023-01-23T10:49:17.569Z,43.25
2023-01-23T11:01:26.777Z,35.35
2023-01-23T11:04:14.576Z,34.90
2023-01-23T11:07:11.022Z,34.87
2023-01-23T11:09:46.806Z,32.92
2023-01-23T11:18:32.441Z,38.00
2023-01-23T11:21:34.261Z,34.28
2023-01-23T11:24:40.410Z,33.33
2023-01-23T11:45:33.459Z,35.95
2023-01-23T11:51:55.659Z,37.37
2023-01-23T11:54:43.323Z,39.05
2023-01-23T11:57:22.619Z,41.13
2023-01-23T12:00:26.445Z,45.08
2023-01-23T12:03:28.907Z,42.83
2023-01-23T12:06:34.859Z,42.15
2023-01-23T12:12:50.276Z,37.60
2023-01-23T12:15:42.113Z,38.20
2023-01-23T12:18:19.633Z,34.93
2023-01-23T12:24:26.812Z,32.92
2023-01-23T12:30:22.020Z,33.95
2023-01-23T12:33:07.102Z,32.87
2023-01-23T12:35:50.935Z,32.38
2023-01-23T12:38:33.031Z,30.40
2023-01-23T12:41:38.913Z,33.28
2023-01-23T12:44:27.276Z,31.88
2023-01-23T12:47:17.966Z,34.30
2023-01-23T12:50:04.420Z,45.38
2023-01-23T12:53:07.784Z,61.40
2023-01-23T12:55:49.561Z,111.28
2023-01-23T13:01:33.874Z,62.25
2023-01-23T13:04:23.932Z,44.50
2023-01-23T13:07:08.173Z,42.90
2023-01-23T13:10:03.329Z,41.58
2023-01-23T13:12:58.152Z,39.35
2023-01-23T13:19:34.573Z,41.20
2023-01-23T13:22:32.666Z,48.70
2023-01-23T13:25:23.942Z,68.47
2023-01-23T13:28:09.748Z,43.75
2023-01-23T13:30:50.286Z,39.15
2023-01-23T13:34:15.374Z,40.65
2023-01-23T13:39:47.596Z,38.47
2023-01-23T13:43:01.456Z,38.13
2023-01-23T13:45:50.841Z,47.37
2023-01-23T14:47:25.166Z,31.83
2023-01-23T14:53:30.339Z,35.00
2023-01-23T14:56:28.378Z,36.22
2023-01-23T15:08:22.218Z,36.28
2023-01-23T15:14:19.193Z,44.72
2023-01-23T15:16:59.854Z,38.73
2023-01-23T15:19:41.219Z,39.92
2023-01-23T16:02:55.626Z,39.63
2023-01-23T17:21:45.715Z,56.87
2023-01-23T17:36:57.882Z,47.23
2023-01-23T18:05:21.528Z,43.30
2023-01-23T18:14:29.696Z,41.05
2023-01-23T18:17:29.036Z,56.58
2023-01-23T18:54:55.831Z,82.28
2023-01-23T18:57:41.844Z,81.47
2023-01-23T19:00:26.204Z,60.65
2023-01-23T19:06:02.923Z,50.05
2023-01-23T19:08:41.298Z,53.28
2023-01-23T19:11:55.455Z,48.40
2023-01-23T19:14:46.664Z,42.42
2023-01-23T19:17:28.206Z,41.08
2023-01-23T19:20:06.513Z,43.50
2023-01-23T19:22:41.121Z,42.33
2023-01-23T19:25:19.550Z,42.65
2023-01-23T19:27:56.301Z,41.83
2023-01-23T19:30:37.262Z,40.38
2023-01-23T19:33:14.057Z,39.83
2023-01-23T19:35:55.573Z,43.65
2023-01-23T19:38:31.012Z,42.93
2023-01-23T19:41:06.185Z,45.60
2023-01-23T19:43:41.240Z,41.30
2023-01-23T19:46:20.112Z,42.30
2023-01-23T19:48:56.580Z,43.20
2023-01-23T19:51:32.938Z,40.07
2023-01-23T19:54:11.059Z,38.88
2023-01-23T19:56:47.761Z,37.83
2023-01-23T19:59:22.788Z,36.72
2023-01-23T20:02:01.772Z,35.65
2023-01-23T20:04:37.599Z,41.80
2023-01-23T20:07:13.651Z,42.53
2023-01-23T20:12:32.057Z,45.22
2023-01-23T20:15:07.390Z,44.42
2023-01-23T20:17:46.885Z,44.57
2023-01-23T20:20:22.613Z,41.55
2023-01-23T20:22:59.282Z,43.50
2023-01-23T20:25:33.855Z,42.35
2023-01-23T20:28:11.632Z,37.38
2023-01-23T20:30:49.601Z,46.03
2023-01-23T20:33:27.962Z,43.72
2023-01-23T20:36:02.671Z,49.38
2023-01-23T20:38:40.701Z,43.50
2023-01-23T20:41:16.746Z,48.10
2023-01-23T20:46:41.707Z,49.22
2023-01-23T20:49:26.039Z,48.53
2023-01-23T20:52:22.975Z,48.85
2023-01-23T20:55:00.471Z,40.05
2023-01-23T20:57:51.439Z,56.13
2023-01-23T21:00:32.885Z,52.15
2023-01-23T21:03:11.127Z,45.72
2023-01-23T21:06:15.049Z,43.20
2023-01-23T21:08:51.170Z,43.70
2023-01-23T21:11:32.068Z,43.13
2023-01-23T21:17:00.773Z,46.38
2023-01-23T21:19:41.879Z,46.40
2023-01-23T21:22:36.119Z,44.40
2023-01-23T21:25:14.538Z,44.15
2023-01-23T21:27:49.435Z,45.80
2023-01-23T21:30:29.138Z,46.33
2023-01-23T21:33:08.713Z,47.53
2023-01-23T21:35:47.738Z,46.25
2023-01-23T21:38:51.490Z,44.63
2023-01-23T21:41:33.413Z,42.33
2023-01-23T21:44:13.672Z,44.78
2023-01-23T21:47:06.460Z,44.75
2023-01-23T21:49:50.036Z,44.97
2023-01-23T21:52:30.567Z,43.80
2023-01-23T21:55:18.818Z,43.03
2023-01-23T21:58:02.146Z,38.17
2023-01-23T22:00:57.583Z,41.85
2023-01-23T22:03:44.459Z,39.67
2023-01-23T22:09:00.449Z,39.38
2023-01-23T22:11:35.978Z,41.97
2023-01-23T22:14:33.839Z,39.75
2023-01-23T22:17:17.936Z,35.72
2023-01-23T22:20:03.191Z,39.47
2023-01-23T22:22:42.252Z,35.55
2023-01-23T22:25:22.832Z,36.47
2023-01-23T22:27:59.115Z,37.35
2023-01-23T22:33:46.706Z,39.15
2023-01-23T22:36:36.883Z,37.60
2023-01-23T22:39:12.061Z,38.20
2023-01-23T22:42:05.106Z,38.85
2023-01-23T22:44:53.406Z,36.08
2023-01-23T22:47:54.958Z,37.80
2023-01-23T22:50:33.199Z,38.00
2023-01-23T22:53:12.063Z,40.05
2023-01-23T22:55:49.258Z,37.50
2023-01-23T22:58:26.780Z,37.60
2023-01-23T23:01:00.676Z,36.15
2023-01-23T23:03:43.228Z,38.03
2023-01-23T23:06:20.973Z,40.10
2023-01-23T23:08:55.614Z,35.28
2023-01-23T23:11:31.668Z,38.63
2023-01-23T23:16:41.330Z,38.90
2023-01-23T23:19:18.333Z,36.17
2023-01-23T23:21:52.584Z,37.90
2023-01-23T23:24:27.746Z,40.38
2023-01-23T23:27:02.539Z,38.45
2023-01-23T23:29:37.870Z,39.63
2023-01-23T23:32:12.523Z,39.97
2023-01-23T23:34:51.197Z,38.85
2023-01-23T23:37:25.631Z,41.28
2023-01-23T23:40:00.393Z,41.88
2023-01-23T23:42:34.305Z,41.83
2023-01-23T23:45:09.998Z,41.13
2023-01-23T23:47:44.537Z,40.50
2023-01-23T23:50:23.053Z,40.67
2023-01-23T23:52:57.785Z,41.80
2023-01-23T23:55:32.323Z,38.92
2023-01-23T23:58:06.412Z,41.30
